TimeAKST,TemperatureF,Dew PointF,Humidity,Sea Level PressureIn,VisibilityMPH,Wind Direction,Wind SpeedMPH,Gust SpeedMPH,PrecipitationIn,Events,Conditions,WindDirDegrees,DateUTC
12:53 AM,36.0,33.1,89,29.19,9.0,North,4.6,-,0.01,Rain,Light Rain,360,2012-12-01 09:53:00
1:53 AM,36.0,35.1,97,29.20,10.0,Calm,Calm,-,0.04,Rain,Light Rain,0,2012-12-01 10:53:00
2:07 AM,35.6,35.6,100,29.20,10.0,Calm,Calm,-,0.00,Rain,Light Rain,0,2012-12-01 11:07:00
2:40 AM,35.6,35.6,100,29.19,8.0,NW,3.5,-,0.01,,Overcast,310,2012-12-01 11:40:00
3:53 AM,36.0,35.1,97,29.19,6.0,Calm,Calm,-,0.01,Rain,Light Rain,0,2012-12-01 12:53:00
4:26 AM,37.4,35.6,93,29.19,10.0,Calm,Calm,-,0.02,Rain,Light Rain,0,2012-12-01 13:26:00
4:53 AM,37.0,35.1,93,29.19,10.0,Calm,Calm,-,0.02,Rain,Light Rain,0,2012-12-01 13:53:00
5:02 AM,35.6,35.6,100,29.19,10.0,Calm,Calm,-,0.00,Rain,Light Rain,0,2012-12-01 14:02:00
5:34 AM,35.6,35.6,100,29.18,10.0,Calm,Calm,-,0.01,Rain,Light Rain,0,2012-12-01 14:34:00
5:48 AM,35.6,35.6,100,29.18,10.0,Calm,Calm,-,0.02,Rain,Light Rain,0,2012-12-01 14:48:00
5:53 AM,36.0,35.1,97,29.19,10.0,Calm,Calm,-,0.02,Rain,Light Rain,0,2012-12-01 14:53:00
6:06 AM,35.6,35.6,100,29.18,10.0,Calm,Calm,-,0.00,Rain,Light Rain,0,2012-12-01 15:06:00
6:53 AM,36.0,35.1,97,29.19,10.0,Calm,Calm,-,0.01,,Overcast,0,2012-12-01 15:53:00
7:53 AM,36.0,35.1,97,29.20,9.0,Calm,Calm,-,0.00,Rain,Light Rain,0,2012-12-01 16:53:00
8:53 AM,36.0,35.1,97,29.20,7.0,Calm,Calm,-,0.01,Rain,Light Rain,0,2012-12-01 17:53:00
9:53 AM,36.0,35.1,97,29.21,10.0,Calm,Calm,-,0.02,Rain,Light Rain,0,2012-12-01 18:53:00
10:53 AM,36.0,34.0,93,29.21,9.0,NNW,3.5,-,0.01,Rain,Light Rain,340,2012-12-01 19:53:00
11:53 AM,36.0,34.0,93,29.20,10.0,Calm,Calm,-,0.01,Rain,Light Rain,0,2012-12-01 20:53:00
12:53 PM,35.1,34.0,96,29.20,10.0,Calm,Calm,-,0.04,Rain-Snow,Light Rain,0,2012-12-01 21:53:00
1:53 PM,36.0,34.0,93,29.20,10.0,Calm,Calm,-,0.02,,Overcast,0,2012-12-01 22:53:00
2:35 PM,35.6,35.6,100,29.18,9.0,Calm,Calm,-,0.00,Rain,Light Rain,0,2012-12-01 23:35:00
2:53 PM,36.0,35.1,97,29.18,8.0,Calm,Calm,-,0.00,Rain,Light Rain,0,2012-12-01 23:53:00
3:53 PM,36.0,34.0,93,29.18,10.0,Calm,Calm,-,0.01,Rain,Light Rain,0,2012-12-02 00:53:00
4:53 PM,35.1,34.0,96,29.16,10.0,Calm,Calm,-,0.02,Rain,Light Rain,0,2012-12-02 01:53:00
5:53 PM,35.1,34.0,96,29.16,10.0,Calm,Calm,-,0.00,Rain,Light Rain,0,2012-12-02 02:53:00
6:53 PM,35.1,34.0,96,29.15,8.0,Calm,Calm,-,0.01,,Overcast,0,2012-12-02 03:53:00
7:49 PM,35.6,33.8,93,29.14,10.0,Calm,Calm,-,0.00,,Overcast,0,2012-12-02 04:49:00
7:53 PM,35.1,34.0,96,29.14,10.0,Calm,Calm,-,0.00,,Overcast,0,2012-12-02 04:53:00
8:53 PM,35.1,34.0,96,29.13,10.0,Calm,Calm,-,0.03,Rain,Light Rain,0,2012-12-02 05:53:00
9:41 PM,33.8,33.8,100,29.13,4.0,Calm,Calm,-,0.02,Snow,Light Snow,0,2012-12-02 06:41:00
9:53 PM,34.0,33.1,96,29.13,5.0,Calm,Calm,-,0.03,Rain,Light Rain,0,2012-12-02 06:53:00
10:04 PM,33.8,33.8,100,29.12,6.0,Calm,Calm,-,0.00,Rain,Light Rain,0,2012-12-02 07:04:00
10:53 PM,34.0,33.1,96,29.12,5.0,Calm,Calm,-,0.01,Rain,Light Rain,0,2012-12-02 07:53:00
11:33 PM,33.8,33.8,100,29.11,8.0,Calm,Calm,-,0.02,Rain,Light Rain,0,2012-12-02 08:33:00
11:53 PM,34.0,33.1,96,29.12,8.0,Calm,Calm,-,0.03,Rain,Light Rain,0,2012-12-02 08:53:00